sensor_id;sensor_type;location;lat;lon;timestamp;P1;durP1;ratioP1;P2;durP2;ratioP2
9424;SDS011;17139;52.140;11.636;2022-07-29T00:01:49;3.25;;;1.35;;
9424;SDS011;17139;52.140;11.636;2022-07-29T00:04:18;5.60;;;1.55;;
9424;SDS011;17139;52.140;11.636;2022-07-29T00:06:47;1.20;;;1.15;;
9424;SDS011;17139;52.140;11.636;2022-07-29T00:09:15;1.00;;;1.00;;
9424;SDS011;17139;52.140;11.636;2022-07-29T00:11:43;1.40;;;1.08;;
9424;SDS011;17139;52.140;11.636;2022-07-29T00:14:10;1.20;;;1.20;;
9424;SDS011;17139;52.140;11.636;2022-07-29T00:16:38;1.40;;;1.30;;
9424;SDS011;17139;52.140;11.636;2022-07-29T00:19:06;1.35;;;1.25;;
9424;SDS011;17139;52.140;11.636;2022-07-29T00:21:33;2.58;;;1.40;;
9424;SDS011;17139;52.140;11.636;2022-07-29T00:24:03;1.58;;;1.38;;
9424;SDS011;17139;52.140;11.636;2022-07-29T00:26:30;1.00;;;1.00;;
9424;SDS011;17139;52.140;11.636;2022-07-29T00:28:58;5.63;;;1.60;;
9424;SDS011;17139;52.140;11.636;2022-07-29T00:31:26;2.22;;;1.33;;
9424;SDS011;17139;52.140;11.636;2022-07-29T00:33:54;1.10;;;1.10;;
9424;SDS011;17139;52.140;11.636;2022-07-29T00:36:22;1.25;;;1.15;;
9424;SDS011;17139;52.140;11.636;2022-07-29T00:38:48;3.80;;;1.35;;
9424;SDS011;17139;52.140;11.636;2022-07-29T00:41:18;4.57;;;1.60;;
9424;SDS011;17139;52.140;11.636;2022-07-29T00:43:45;1.80;;;1.38;;
9424;SDS011;17139;52.140;11.636;2022-07-29T00:46:14;6.18;;;1.75;;
9424;SDS011;17139;52.140;11.636;2022-07-29T00:48:41;2.05;;;1.23;;
9424;SDS011;17139;52.140;11.636;2022-07-29T00:51:09;1.25;;;1.20;;
9424;SDS011;17139;52.140;11.636;2022-07-29T00:53:37;1.17;;;1.08;;
9424;SDS011;17139;52.140;11.636;2022-07-29T00:56:05;1.60;;;1.50;;
9424;SDS011;17139;52.140;11.636;2022-07-29T00:58:34;1.38;;;1.27;;
9424;SDS011;17139;52.140;11.636;2022-07-29T01:01:02;2.53;;;1.75;;
9424;SDS011;17139;52.140;11.636;2022-07-29T01:03:30;1.25;;;1.25;;
9424;SDS011;17139;52.140;11.636;2022-07-29T01:05:58;1.17;;;1.17;;
9424;SDS011;17139;52.140;11.636;2022-07-29T01:08:27;1.70;;;1.60;;
9424;SDS011;17139;52.140;11.636;2022-07-29T01:10:55;1.83;;;1.10;;
9424;SDS011;17139;52.140;11.636;2022-07-29T01:13:23;5.50;;;1.55;;
9424;SDS011;17139;52.140;11.636;2022-07-29T01:15:54;6.25;;;1.48;;
9424;SDS011;17139;52.140;11.636;2022-07-29T01:18:28;1.80;;;1.35;;
9424;SDS011;17139;52.140;11.636;2022-07-29T01:21:12;3.28;;;1.33;;
9424;SDS011;17139;52.140;11.636;2022-07-29T01:24:06;1.70;;;1.55;;
9424;SDS011;17139;52.140;11.636;2022-07-29T01:26:45;1.73;;;1.63;;
9424;SDS011;17139;52.140;11.636;2022-07-29T01:29:18;1.55;;;1.45;;
9424;SDS011;17139;52.140;11.636;2022-07-29T01:31:54;3.35;;;1.77;;
9424;SDS011;17139;52.140;11.636;2022-07-29T01:34:27;2.03;;;1.70;;
9424;SDS011;17139;52.140;11.636;2022-07-29T01:37:04;7.43;;;1.50;;
9424;SDS011;17139;52.140;11.636;2022-07-29T01:39:39;1.40;;;1.40;;
9424;SDS011;17139;52.140;11.636;2022-07-29T01:42:12;1.73;;;1.50;;
9424;SDS011;17139;52.140;11.636;2022-07-29T01:44:48;1.40;;;1.30;;
9424;SDS011;17139;52.140;11.636;2022-07-29T01:47:23;1.88;;;1.42;;
9424;SDS011;17139;52.140;11.636;2022-07-29T01:49:55;1.58;;;1.58;;
9424;SDS011;17139;52.140;11.636;2022-07-29T01:52:25;1.55;;;1.48;;
9424;SDS011;17139;52.140;11.636;2022-07-29T01:55:02;1.40;;;1.30;;
9424;SDS011;17139;52.140;11.636;2022-07-29T01:57:34;2.53;;;1.67;;
9424;SDS011;17139;52.140;11.636;2022-07-29T02:00:07;1.50;;;1.50;;
9424;SDS011;17139;52.140;11.636;2022-07-29T02:02:35;1.55;;;1.45;;
9424;SDS011;17139;52.140;11.636;2022-07-29T02:05:05;3.40;;;1.90;;
9424;SDS011;17139;52.140;11.636;2022-07-29T02:07:36;4.55;;;1.77;;
9424;SDS011;17139;52.140;11.636;2022-07-29T02:10:06;1.30;;;1.30;;
9424;SDS011;17139;52.140;11.636;2022-07-29T02:12:35;3.45;;;1.40;;
9424;SDS011;17139;52.140;11.636;2022-07-29T02:15:04;2.28;;;1.42;;
9424;SDS011;17139;52.140;11.636;2022-07-29T02:17:35;1.45;;;1.38;;
9424;SDS011;17139;52.140;11.636;2022-07-29T02:20:08;1.60;;;1.50;;
9424;SDS011;17139;52.140;11.636;2022-07-29T02:22:37;1.20;;;1.20;;
9424;SDS011;17139;52.140;11.636;2022-07-29T02:25:05;2.03;;;1.92;;
9424;SDS011;17139;52.140;11.636;2022-07-29T02:27:34;2.38;;;1.80;;
9424;SDS011;17139;52.140;11.636;2022-07-29T02:30:04;1.80;;;1.70;;
9424;SDS011;17139;52.140;11.636;2022-07-29T02:32:36;2.28;;;1.60;;
9424;SDS011;17139;52.140;11.636;2022-07-29T02:35:06;1.58;;;1.45;;
9424;SDS011;17139;52.140;11.636;2022-07-29T02:37:35;2.55;;;1.50;;
9424;SDS011;17139;52.140;11.636;2022-07-29T02:40:03;3.03;;;1.70;;
9424;SDS011;17139;52.140;11.636;2022-07-29T02:42:32;2.33;;;1.88;;
9424;SDS011;17139;52.140;11.636;2022-07-29T02:45:02;4.85;;;1.65;;
9424;SDS011;17139;52.140;11.636;2022-07-29T02:47:32;1.70;;;1.55;;
9424;SDS011;17139;52.140;11.636;2022-07-29T02:50:04;1.50;;;1.40;;
9424;SDS011;17139;52.140;11.636;2022-07-29T02:52:37;2.00;;;1.73;;
9424;SDS011;17139;52.140;11.636;2022-07-29T02:55:11;1.90;;;1.80;;
9424;SDS011;17139;52.140;11.636;2022-07-29T02:57:43;3.92;;;1.95;;
9424;SDS011;17139;52.140;11.636;2022-07-29T03:00:13;1.70;;;1.60;;
9424;SDS011;17139;52.140;11.636;2022-07-29T03:02:44;3.10;;;1.90;;
9424;SDS011;17139;52.140;11.636;2022-07-29T03:05:17;2.03;;;1.77;;
9424;SDS011;17139;52.140;11.636;2022-07-29T03:07:46;3.55;;;1.65;;
9424;SDS011;17139;52.140;11.636;2022-07-29T03:10:17;2.60;;;1.75;;
9424;SDS011;17139;52.140;11.636;2022-07-29T03:12:45;1.85;;;1.70;;
9424;SDS011;17139;52.140;11.636;2022-07-29T03:15:12;2.28;;;2.10;;
9424;SDS011;17139;52.140;11.636;2022-07-29T03:17:40;1.90;;;1.80;;
9424;SDS011;17139;52.140;11.636;2022-07-29T03:20:09;2.17;;;2.03;;
9424;SDS011;17139;52.140;11.636;2022-07-29T03:22:40;2.65;;;1.85;;
9424;SDS011;17139;52.140;11.636;2022-07-29T03:25:09;3.15;;;2.45;;
9424;SDS011;17139;52.140;11.636;2022-07-29T03:27:40;1.92;;;1.83;;
9424;SDS011;17139;52.140;11.636;2022-07-29T03:30:07;3.58;;;2.13;;
9424;SDS011;17139;52.140;11.636;2022-07-29T03:32:36;2.33;;;2.17;;
9424;SDS011;17139;52.140;11.636;2022-07-29T03:35:04;2.15;;;2.05;;
9424;SDS011;17139;52.140;11.636;2022-07-29T03:37:31;3.55;;;1.98;;
9424;SDS011;17139;52.140;11.636;2022-07-29T03:40:03;2.65;;;2.45;;
9424;SDS011;17139;52.140;11.636;2022-07-29T03:42:34;2.47;;;2.28;;
9424;SDS011;17139;52.140;11.636;2022-07-29T03:45:05;2.20;;;2.10;;
9424;SDS011;17139;52.140;11.636;2022-07-29T03:47:36;2.00;;;1.90;;
9424;SDS011;17139;52.140;11.636;2022-07-29T03:50:05;4.60;;;2.28;;
9424;SDS011;17139;52.140;11.636;2022-07-29T03:52:34;2.40;;;2.30;;
9424;SDS011;17139;52.140;11.636;2022-07-29T03:55:03;2.92;;;1.73;;
9424;SDS011;17139;52.140;11.636;2022-07-29T03:57:32;2.67;;;2.28;;
9424;SDS011;17139;52.140;11.636;2022-07-29T04:00:01;2.75;;;2.15;;
9424;SDS011;17139;52.140;11.636;2022-07-29T04:02:30;2.58;;;2.17;;
9424;SDS011;17139;52.140;11.636;2022-07-29T04:04:58;1.80;;;1.73;;
9424;SDS011;17139;52.140;11.636;2022-07-29T04:07:26;3.13;;;2.22;;
9424;SDS011;17139;52.140;11.636;2022-07-29T04:09:53;4.00;;;2.50;;
9424;SDS011;17139;52.140;11.636;2022-07-29T04:12:21;2.40;;;2.25;;
9424;SDS011;17139;52.140;11.636;2022-07-29T04:14:48;2.60;;;2.45;;
9424;SDS011;17139;52.140;11.636;2022-07-29T04:17:16;2.55;;;2.10;;
9424;SDS011;17139;52.140;11.636;2022-07-29T04:19:43;3.05;;;2.80;;
9424;SDS011;17139;52.140;11.636;2022-07-29T04:22:10;2.50;;;2.30;;
9424;SDS011;17139;52.140;11.636;2022-07-29T04:24:37;2.53;;;2.30;;
9424;SDS011;17139;52.140;11.636;2022-07-29T04:27:04;2.75;;;2.53;;
9424;SDS011;17139;52.140;11.636;2022-07-29T04:29:32;2.97;;;2.78;;
9424;SDS011;17139;52.140;11.636;2022-07-29T04:32:00;2.50;;;2.40;;
9424;SDS011;17139;52.140;11.636;2022-07-29T04:34:27;9.50;;;2.70;;
9424;SDS011;17139;52.140;11.636;2022-07-29T04:36:54;3.70;;;2.50;;
9424;SDS011;17139;52.140;11.636;2022-07-29T04:39:22;2.72;;;2.55;;
9424;SDS011;17139;52.140;11.636;2022-07-29T04:41:50;3.55;;;2.50;;
9424;SDS011;17139;52.140;11.636;2022-07-29T04:44:20;6.68;;;2.60;;
9424;SDS011;17139;52.140;11.636;2022-07-29T04:46:49;6.93;;;2.92;;
9424;SDS011;17139;52.140;11.636;2022-07-29T04:49:16;5.60;;;2.63;;
9424;SDS011;17139;52.140;11.636;2022-07-29T04:51:43;3.45;;;2.30;;
9424;SDS011;17139;52.140;11.636;2022-07-29T04:54:10;2.70;;;2.25;;
9424;SDS011;17139;52.140;11.636;2022-07-29T04:56:38;3.50;;;2.42;;
9424;SDS011;17139;52.140;11.636;2022-07-29T04:59:05;2.20;;;2.10;;
9424;SDS011;17139;52.140;11.636;2022-07-29T05:01:32;2.65;;;2.45;;
9424;SDS011;17139;52.140;11.636;2022-07-29T05:04:01;2.55;;;2.30;;
9424;SDS011;17139;52.140;11.636;2022-07-29T05:06:28;2.90;;;2.70;;
9424;SDS011;17139;52.140;11.636;2022-07-29T05:08:55;3.35;;;2.25;;
9424;SDS011;17139;52.140;11.636;2022-07-29T05:11:22;6.93;;;2.58;;
9424;SDS011;17139;52.140;11.636;2022-07-29T05:13:49;2.53;;;2.33;;
9424;SDS011;17139;52.140;11.636;2022-07-29T05:16:16;2.47;;;2.33;;
9424;SDS011;17139;52.140;11.636;2022-07-29T05:18:44;2.72;;;2.53;;
9424;SDS011;17139;52.140;11.636;2022-07-29T05:21:12;2.47;;;2.38;;
9424;SDS011;17139;52.140;11.636;2022-07-29T05:23:39;2.70;;;2.50;;
9424;SDS011;17139;52.140;11.636;2022-07-29T05:26:06;2.72;;;2.53;;
9424;SDS011;17139;52.140;11.636;2022-07-29T05:28:34;3.63;;;2.40;;
9424;SDS011;17139;52.140;11.636;2022-07-29T05:31:01;4.63;;;2.45;;
9424;SDS011;17139;52.140;11.636;2022-07-29T05:33:28;2.92;;;2.72;;
9424;SDS011;17139;52.140;11.636;2022-07-29T05:35:55;3.03;;;2.83;;
9424;SDS011;17139;52.140;11.636;2022-07-29T05:38:24;2.75;;;2.55;;
9424;SDS011;17139;52.140;11.636;2022-07-29T05:40:51;4.30;;;2.70;;
9424;SDS011;17139;52.140;11.636;2022-07-29T05:43:19;2.97;;;2.60;;
9424;SDS011;17139;52.140;11.636;2022-07-29T05:45:46;2.90;;;2.47;;
9424;SDS011;17139;52.140;11.636;2022-07-29T05:48:13;5.40;;;2.70;;
9424;SDS011;17139;52.140;11.636;2022-07-29T05:50:40;2.63;;;2.25;;
9424;SDS011;17139;52.140;11.636;2022-07-29T05:53:07;3.10;;;2.30;;
9424;SDS011;17139;52.140;11.636;2022-07-29T05:55:36;6.35;;;2.53;;
9424;SDS011;17139;52.140;11.636;2022-07-29T05:58:03;2.92;;;2.72;;
9424;SDS011;17139;52.140;11.636;2022-07-29T06:00:30;3.70;;;2.88;;
9424;SDS011;17139;52.140;11.636;2022-07-29T06:02:58;6.22;;;2.95;;
9424;SDS011;17139;52.140;11.636;2022-07-29T06:05:25;2.85;;;2.75;;
9424;SDS011;17139;52.140;11.636;2022-07-29T06:07:52;3.25;;;2.95;;
9424;SDS011;17139;52.140;11.636;2022-07-29T06:10:19;3.00;;;2.80;;
9424;SDS011;17139;52.140;11.636;2022-07-29T06:12:48;3.10;;;2.80;;
9424;SDS011;17139;52.140;11.636;2022-07-29T06:15:15;2.72;;;2.63;;
9424;SDS011;17139;52.140;11.636;2022-07-29T06:17:43;2.40;;;2.30;;
9424;SDS011;17139;52.140;11.636;2022-07-29T06:20:10;2.53;;;2.33;;
9424;SDS011;17139;52.140;11.636;2022-07-29T06:22:38;2.47;;;2.28;;
9424;SDS011;17139;52.140;11.636;2022-07-29T06:25:05;4.63;;;2.53;;
9424;SDS011;17139;52.140;11.636;2022-07-29T06:27:33;3.20;;;2.92;;
9424;SDS011;17139;52.140;11.636;2022-07-29T06:30:02;6.20;;;2.67;;
9424;SDS011;17139;52.140;11.636;2022-07-29T06:32:31;2.70;;;2.50;;
9424;SDS011;17139;52.140;11.636;2022-07-29T06:34:59;2.75;;;2.55;;
9424;SDS011;17139;52.140;11.636;2022-07-29T06:37:26;3.55;;;2.55;;
9424;SDS011;17139;52.140;11.636;2022-07-29T06:39:54;6.35;;;3.05;;
9424;SDS011;17139;52.140;11.636;2022-07-29T06:42:35;4.47;;;2.28;;
9424;SDS011;17139;52.140;11.636;2022-07-29T06:45:04;4.95;;;2.90;;
9424;SDS011;17139;52.140;11.636;2022-07-29T06:47:32;2.78;;;2.67;;
9424;SDS011;17139;52.140;11.636;2022-07-29T06:50:00;3.45;;;3.15;;
9424;SDS011;17139;52.140;11.636;2022-07-29T06:52:27;5.00;;;3.33;;
9424;SDS011;17139;52.140;11.636;2022-07-29T06:54:54;4.72;;;2.83;;
9424;SDS011;17139;52.140;11.636;2022-07-29T06:57:22;2.65;;;2.40;;
9424;SDS011;17139;52.140;11.636;2022-07-29T06:59:49;7.22;;;2.70;;
9424;SDS011;17139;52.140;11.636;2022-07-29T07:02:19;3.30;;;2.83;;
9424;SDS011;17139;52.140;11.636;2022-07-29T07:04:46;4.75;;;2.78;;
9424;SDS011;17139;52.140;11.636;2022-07-29T07:07:14;3.00;;;2.75;;
9424;SDS011;17139;52.140;11.636;2022-07-29T07:09:41;3.22;;;2.17;;
9424;SDS011;17139;52.140;11.636;2022-07-29T07:12:08;4.10;;;2.78;;
9424;SDS011;17139;52.140;11.636;2022-07-29T07:14:37;3.80;;;2.47;;
9424;SDS011;17139;52.140;11.636;2022-07-29T07:17:06;2.65;;;2.50;;
9424;SDS011;17139;52.140;11.636;2022-07-29T07:19:35;2.90;;;2.70;;
9424;SDS011;17139;52.140;11.636;2022-07-29T07:22:02;2.67;;;2.42;;
9424;SDS011;17139;52.140;11.636;2022-07-29T07:24:30;3.88;;;2.90;;
9424;SDS011;17139;52.140;11.636;2022-07-29T07:26:57;4.00;;;2.60;;
9424;SDS011;17139;52.140;11.636;2022-07-29T07:29:25;3.03;;;2.83;;
9424;SDS011;17139;52.140;11.636;2022-07-29T07:31:52;2.97;;;2.75;;
9424;SDS011;17139;52.140;11.636;2022-07-29T07:34:20;2.97;;;2.58;;
9424;SDS011;17139;52.140;11.636;2022-07-29T07:36:49;2.67;;;2.53;;
9424;SDS011;17139;52.140;11.636;2022-07-29T07:39:16;2.83;;;2.72;;
9424;SDS011;17139;52.140;11.636;2022-07-29T07:41:43;2.92;;;2.67;;
9424;SDS011;17139;52.140;11.636;2022-07-29T07:44:11;3.50;;;2.47;;
9424;SDS011;17139;52.140;11.636;2022-07-29T07:46:38;3.13;;;2.40;;
9424;SDS011;17139;52.140;11.636;2022-07-29T07:49:05;2.58;;;2.35;;
9424;SDS011;17139;52.140;11.636;2022-07-29T07:51:33;3.17;;;2.70;;
9424;SDS011;17139;52.140;11.636;2022-07-29T07:54:02;7.00;;;2.60;;
9424;SDS011;17139;52.140;11.636;2022-07-29T07:56:29;4.07;;;3.00;;
9424;SDS011;17139;52.140;11.636;2022-07-29T07:58:56;3.72;;;2.70;;
9424;SDS011;17139;52.140;11.636;2022-07-29T08:01:24;2.60;;;2.40;;
9424;SDS011;17139;52.140;11.636;2022-07-29T08:03:51;2.90;;;2.80;;
9424;SDS011;17139;52.140;11.636;2022-07-29T08:06:18;4.20;;;2.58;;
9424;SDS011;17139;52.140;11.636;2022-07-29T08:08:45;3.10;;;2.80;;
9424;SDS011;17139;52.140;11.636;2022-07-29T08:11:14;4.07;;;2.55;;
9424;SDS011;17139;52.140;11.636;2022-07-29T08:13:42;3.10;;;2.55;;
9424;SDS011;17139;52.140;11.636;2022-07-29T08:16:09;4.35;;;3.00;;
9424;SDS011;17139;52.140;11.636;2022-07-29T08:18:41;3.85;;;2.65;;
9424;SDS011;17139;52.140;11.636;2022-07-29T08:21:09;4.35;;;2.72;;
9424;SDS011;17139;52.140;11.636;2022-07-29T08:23:37;3.33;;;3.03;;
9424;SDS011;17139;52.140;11.636;2022-07-29T08:26:04;2.88;;;2.75;;
9424;SDS011;17139;52.140;11.636;2022-07-29T08:28:37;3.35;;;2.30;;
9424;SDS011;17139;52.140;11.636;2022-07-29T08:31:05;4.38;;;3.08;;
9424;SDS011;17139;52.140;11.636;2022-07-29T08:33:32;3.75;;;2.85;;
9424;SDS011;17139;52.140;11.636;2022-07-29T08:36:00;2.42;;;2.33;;
9424;SDS011;17139;52.140;11.636;2022-07-29T08:38:27;2.72;;;2.53;;
9424;SDS011;17139;52.140;11.636;2022-07-29T08:40:54;7.75;;;3.00;;
9424;SDS011;17139;52.140;11.636;2022-07-29T08:43:22;5.22;;;2.67;;
9424;SDS011;17139;52.140;11.636;2022-07-29T08:45:51;4.68;;;2.70;;
9424;SDS011;17139;52.140;11.636;2022-07-29T08:48:19;2.38;;;2.17;;
9424;SDS011;17139;52.140;11.636;2022-07-29T08:50:47;2.45;;;2.28;;
9424;SDS011;17139;52.140;11.636;2022-07-29T08:53:18;5.03;;;2.60;;
9424;SDS011;17139;52.140;11.636;2022-07-29T08:55:47;3.67;;;2.83;;
9424;SDS011;17139;52.140;11.636;2022-07-29T08:58:15;4.47;;;2.72;;
9424;SDS011;17139;52.140;11.636;2022-07-29T09:00:44;3.30;;;2.65;;
9424;SDS011;17139;52.140;11.636;2022-07-29T09:03:17;2.30;;;2.20;;
9424;SDS011;17139;52.140;11.636;2022-07-29T09:05:46;3.05;;;2.42;;
9424;SDS011;17139;52.140;11.636;2022-07-29T09:08:15;4.22;;;2.85;;
9424;SDS011;17139;52.140;11.636;2022-07-29T09:10:43;2.92;;;2.72;;
9424;SDS011;17139;52.140;11.636;2022-07-29T09:13:13;7.47;;;2.75;;
9424;SDS011;17139;52.140;11.636;2022-07-29T09:15:40;3.95;;;3.20;;
9424;SDS011;17139;52.140;11.636;2022-07-29T09:18:07;3.05;;;2.85;;
9424;SDS011;17139;52.140;11.636;2022-07-29T09:20:36;4.90;;;2.80;;
9424;SDS011;17139;52.140;11.636;2022-07-29T09:23:20;3.63;;;3.03;;
9424;SDS011;17139;52.140;11.636;2022-07-29T09:25:48;2.92;;;2.70;;
9424;SDS011;17139;52.140;11.636;2022-07-29T09:28:16;5.70;;;2.55;;
9424;SDS011;17139;52.140;11.636;2022-07-29T09:30:49;4.43;;;2.50;;
9424;SDS011;17139;52.140;11.636;2022-07-29T09:33:18;2.33;;;2.22;;
9424;SDS011;17139;52.140;11.636;2022-07-29T09:35:57;3.35;;;2.50;;
9424;SDS011;17139;52.140;11.636;2022-07-29T09:38:25;2.30;;;2.13;;
9424;SDS011;17139;52.140;11.636;2022-07-29T09:40:56;3.55;;;2.80;;
9424;SDS011;17139;52.140;11.636;2022-07-29T09:43:23;4.38;;;2.50;;
9424;SDS011;17139;52.140;11.636;2022-07-29T09:45:50;3.08;;;2.47;;
9424;SDS011;17139;52.140;11.636;2022-07-29T09:48:18;3.30;;;2.75;;
9424;SDS011;17139;52.140;11.636;2022-07-29T09:50:49;4.30;;;2.60;;
9424;SDS011;17139;52.140;11.636;2022-07-29T09:53:30;2.35;;;2.25;;
9424;SDS011;17139;52.140;11.636;2022-07-29T09:55:58;3.05;;;2.75;;
9424;SDS011;17139;52.140;11.636;2022-07-29T09:58:26;2.72;;;2.47;;
9424;SDS011;17139;52.140;11.636;2022-07-29T10:00:54;2.03;;;1.90;;
9424;SDS011;17139;52.140;11.636;2022-07-29T10:03:22;2.05;;;1.90;;
9424;SDS011;17139;52.140;11.636;2022-07-29T10:06:05;4.95;;;2.45;;
9424;SDS011;17139;52.140;11.636;2022-07-29T10:08:33;3.53;;;2.15;;
9424;SDS011;17139;52.140;11.636;2022-07-29T10:11:08;5.43;;;2.40;;
9424;SDS011;17139;52.140;11.636;2022-07-29T10:13:37;2.30;;;2.08;;
9424;SDS011;17139;52.140;11.636;2022-07-29T10:16:05;4.97;;;2.17;;
9424;SDS011;17139;52.140;11.636;2022-07-29T10:18:33;4.25;;;2.90;;
9424;SDS011;17139;52.140;11.636;2022-07-29T10:21:01;5.00;;;1.75;;
9424;SDS011;17139;52.140;11.636;2022-07-29T10:23:32;1.90;;;1.80;;
9424;SDS011;17139;52.140;11.636;2022-07-29T10:26:01;1.90;;;1.80;;
9424;SDS011;17139;52.140;11.636;2022-07-29T10:28:29;2.30;;;1.58;;
9424;SDS011;17139;52.140;11.636;2022-07-29T10:30:58;2.10;;;1.90;;
9424;SDS011;17139;52.140;11.636;2022-07-29T10:33:33;2.85;;;1.80;;
9424;SDS011;17139;52.140;11.636;2022-07-29T10:36:20;1.88;;;1.77;;
9424;SDS011;17139;52.140;11.636;2022-07-29T10:39:03;3.35;;;2.13;;
9424;SDS011;17139;52.140;11.636;2022-07-29T10:41:43;5.60;;;1.70;;
9424;SDS011;17139;52.140;11.636;2022-07-29T10:44:20;2.25;;;1.77;;
9424;SDS011;17139;52.140;11.636;2022-07-29T10:46:49;3.97;;;1.70;;
9424;SDS011;17139;52.140;11.636;2022-07-29T10:49:18;1.73;;;1.63;;
9424;SDS011;17139;52.140;11.636;2022-07-29T10:51:57;3.50;;;1.83;;
9424;SDS011;17139;52.140;11.636;2022-07-29T10:54:40;2.33;;;2.10;;
9424;SDS011;17139;52.140;11.636;2022-07-29T10:57:19;2.58;;;1.90;;
9424;SDS011;17139;52.140;11.636;2022-07-29T10:59:50;2.67;;;1.60;;
9424;SDS011;17139;52.140;11.636;2022-07-29T11:02:43;2.00;;;1.90;;
9424;SDS011;17139;52.140;11.636;2022-07-29T11:05:13;2.75;;;1.80;;
9424;SDS011;17139;52.140;11.636;2022-07-29T11:10:47;1.90;;;1.80;;
9424;SDS011;17139;52.140;11.636;2022-07-29T11:16:16;1.90;;;1.80;;
9424;SDS011;17139;52.140;11.636;2022-07-29T11:21:48;1.80;;;1.70;;
9424;SDS011;17139;52.140;11.636;2022-07-29T11:24:17;1.98;;;1.85;;
9424;SDS011;17139;52.140;11.636;2022-07-29T11:29:35;1.70;;;1.60;;
9424;SDS011;17139;52.140;11.636;2022-07-29T11:32:10;1.77;;;1.67;;
9424;SDS011;17139;52.140;11.636;2022-07-29T11:34:39;2.42;;;1.70;;
9424;SDS011;17139;52.140;11.636;2022-07-29T11:37:22;1.80;;;1.50;;
9424;SDS011;17139;52.140;11.636;2022-07-29T11:42:46;2.10;;;2.00;;
9424;SDS011;17139;52.140;11.636;2022-07-29T11:45:15;3.30;;;1.85;;
9424;SDS011;17139;52.140;11.636;2022-07-29T11:47:49;1.95;;;1.85;;
9424;SDS011;17139;52.140;11.636;2022-07-29T11:50:25;1.45;;;1.40;;
9424;SDS011;17139;52.140;11.636;2022-07-29T11:52:58;2.00;;;1.90;;
9424;SDS011;17139;52.140;11.636;2022-07-29T11:55:26;1.40;;;1.40;;
9424;SDS011;17139;52.140;11.636;2022-07-29T11:57:55;1.73;;;1.63;;
9424;SDS011;17139;52.140;11.636;2022-07-29T12:00:26;2.95;;;1.90;;
9424;SDS011;17139;52.140;11.636;2022-07-29T12:02:55;1.73;;;1.63;;
9424;SDS011;17139;52.140;11.636;2022-07-29T12:05:33;2.30;;;2.00;;
9424;SDS011;17139;52.140;11.636;2022-07-29T12:08:07;3.05;;;1.83;;
9424;SDS011;17139;52.140;11.636;2022-07-29T12:10:36;1.90;;;1.80;;
9424;SDS011;17139;52.140;11.636;2022-07-29T12:13:05;5.00;;;2.30;;
9424;SDS011;17139;52.140;11.636;2022-07-29T12:15:33;1.70;;;1.65;;
9424;SDS011;17139;52.140;11.636;2022-07-29T12:18:11;1.65;;;1.65;;
9424;SDS011;17139;52.140;11.636;2022-07-29T12:20:39;2.83;;;2.63;;
9424;SDS011;17139;52.140;11.636;2022-07-29T12:23:07;2.10;;;1.95;;
9424;SDS011;17139;52.140;11.636;2022-07-29T12:25:37;1.88;;;1.77;;
9424;SDS011;17139;52.140;11.636;2022-07-29T12:28:07;3.15;;;2.17;;
9424;SDS011;17139;52.140;11.636;2022-07-29T12:30:40;2.83;;;1.73;;
9424;SDS011;17139;52.140;11.636;2022-07-29T12:33:13;4.00;;;2.00;;
9424;SDS011;17139;52.140;11.636;2022-07-29T12:35:42;1.73;;;1.63;;
9424;SDS011;17139;52.140;11.636;2022-07-29T12:38:11;1.77;;;1.67;;
9424;SDS011;17139;52.140;11.636;2022-07-29T12:40:39;2.15;;;2.05;;
9424;SDS011;17139;52.140;11.636;2022-07-29T12:43:08;2.22;;;2.13;;
9424;SDS011;17139;52.140;11.636;2022-07-29T12:45:37;4.70;;;1.98;;
9424;SDS011;17139;52.140;11.636;2022-07-29T12:48:06;1.87;;;1.77;;
9424;SDS011;17139;52.140;11.636;2022-07-29T12:50:34;1.85;;;1.75;;
9424;SDS011;17139;52.140;11.636;2022-07-29T12:53:09;2.15;;;1.98;;
9424;SDS011;17139;52.140;11.636;2022-07-29T12:55:41;2.15;;;1.90;;
9424;SDS011;17139;52.140;11.636;2022-07-29T12:58:10;3.65;;;1.85;;
9424;SDS011;17139;52.140;11.636;2022-07-29T13:00:38;2.17;;;1.63;;
9424;SDS011;17139;52.140;11.636;2022-07-29T13:03:05;1.48;;;1.45;;
9424;SDS011;17139;52.140;11.636;2022-07-29T13:05:41;2.33;;;1.83;;
9424;SDS011;17139;52.140;11.636;2022-07-29T13:08:10;2.85;;;1.90;;
9424;SDS011;17139;52.140;11.636;2022-07-29T13:10:39;2.00;;;1.80;;
9424;SDS011;17139;52.140;11.636;2022-07-29T13:13:07;2.25;;;1.80;;
9424;SDS011;17139;52.140;11.636;2022-07-29T13:15:37;2.25;;;2.03;;
9424;SDS011;17139;52.140;11.636;2022-07-29T13:18:05;3.55;;;2.33;;
9424;SDS011;17139;52.140;11.636;2022-07-29T13:20:54;3.67;;;2.10;;
9424;SDS011;17139;52.140;11.636;2022-07-29T13:23:21;1.92;;;1.83;;
9424;SDS011;17139;52.140;11.636;2022-07-29T13:25:48;3.63;;;1.90;;
9424;SDS011;17139;52.140;11.636;2022-07-29T13:28:16;3.30;;;2.08;;
9424;SDS011;17139;52.140;11.636;2022-07-29T13:30:44;1.80;;;1.70;;
9424;SDS011;17139;52.140;11.636;2022-07-29T13:33:12;3.40;;;1.75;;
9424;SDS011;17139;52.140;11.636;2022-07-29T13:35:41;1.95;;;1.85;;
9424;SDS011;17139;52.140;11.636;2022-07-29T13:38:08;3.53;;;2.08;;
9424;SDS011;17139;52.140;11.636;2022-07-29T13:40:36;1.63;;;1.52;;
9424;SDS011;17139;52.140;11.636;2022-07-29T13:43:03;1.70;;;1.70;;
9424;SDS011;17139;52.140;11.636;2022-07-29T13:45:31;6.65;;;1.85;;
9424;SDS011;17139;52.140;11.636;2022-07-29T13:47:59;3.33;;;1.90;;
9424;SDS011;17139;52.140;11.636;2022-07-29T13:50:26;2.15;;;1.85;;
9424;SDS011;17139;52.140;11.636;2022-07-29T13:52:54;2.33;;;2.10;;
9424;SDS011;17139;52.140;11.636;2022-07-29T13:55:21;2.65;;;1.83;;
9424;SDS011;17139;52.140;11.636;2022-07-29T13:57:48;4.03;;;1.67;;
9424;SDS011;17139;52.140;11.636;2022-07-29T14:00:16;2.10;;;2.00;;
9424;SDS011;17139;52.140;11.636;2022-07-29T14:02:44;1.73;;;1.73;;
9424;SDS011;17139;52.140;11.636;2022-07-29T14:05:13;2.72;;;1.80;;
9424;SDS011;17139;52.140;11.636;2022-07-29T14:07:41;2.13;;;1.85;;
9424;SDS011;17139;52.140;11.636;2022-07-29T14:10:08;1.75;;;1.70;;
9424;SDS011;17139;52.140;11.636;2022-07-29T14:12:36;2.45;;;1.70;;
9424;SDS011;17139;52.140;11.636;2022-07-29T14:15:03;2.55;;;1.80;;
9424;SDS011;17139;52.140;11.636;2022-07-29T14:17:31;6.68;;;1.85;;
9424;SDS011;17139;52.140;11.636;2022-07-29T14:19:58;3.05;;;2.13;;
9424;SDS011;17139;52.140;11.636;2022-07-29T14:22:27;2.08;;;1.98;;
9424;SDS011;17139;52.140;11.636;2022-07-29T14:24:55;1.92;;;1.83;;
9424;SDS011;17139;52.140;11.636;2022-07-29T14:27:22;1.65;;;1.65;;
9424;SDS011;17139;52.140;11.636;2022-07-29T14:29:49;3.15;;;1.52;;
9424;SDS011;17139;52.140;11.636;2022-07-29T14:32:16;1.70;;;1.60;;
9424;SDS011;17139;52.140;11.636;2022-07-29T14:34:43;2.30;;;2.10;;
9424;SDS011;17139;52.140;11.636;2022-07-29T14:37:11;2.88;;;1.52;;
9424;SDS011;17139;52.140;11.636;2022-07-29T14:39:39;3.92;;;2.00;;
9424;SDS011;17139;52.140;11.636;2022-07-29T14:42:07;3.58;;;1.50;;
9424;SDS011;17139;52.140;11.636;2022-07-29T14:44:34;1.60;;;1.50;;
9424;SDS011;17139;52.140;11.636;2022-07-29T14:47:01;2.50;;;1.73;;
9424;SDS011;17139;52.140;11.636;2022-07-29T14:49:28;1.70;;;1.70;;
9424;SDS011;17139;52.140;11.636;2022-07-29T14:51:55;1.92;;;1.70;;
9424;SDS011;17139;52.140;11.636;2022-07-29T14:54:22;4.90;;;2.20;;
9424;SDS011;17139;52.140;11.636;2022-07-29T14:56:51;5.10;;;1.38;;
9424;SDS011;17139;52.140;11.636;2022-07-29T14:59:21;2.60;;;2.00;;
9424;SDS011;17139;52.140;11.636;2022-07-29T15:01:50;1.70;;;1.60;;
9424;SDS011;17139;52.140;11.636;2022-07-29T15:04:17;2.70;;;2.00;;
9424;SDS011;17139;52.140;11.636;2022-07-29T15:06:44;1.52;;;1.52;;
9424;SDS011;17139;52.140;11.636;2022-07-29T15:09:11;1.85;;;1.80;;
9424;SDS011;17139;52.140;11.636;2022-07-29T15:11:39;2.33;;;2.10;;
9424;SDS011;17139;52.140;11.636;2022-07-29T15:14:07;1.77;;;1.67;;
9424;SDS011;17139;52.140;11.636;2022-07-29T15:16:35;2.08;;;1.83;;